This is the latest recevied weather packets stored in our database for station/object HB9DOZ-13. If no packets are shown the sender has not sent any weather packets the latest 10 day(s).
| Time | Temp. | Humidity | Pressure | Rain* | Wind** | Luminosity | Snow |
|---|---|---|---|---|---|---|---|
| 1777428317 | 11.67° C | 86% | - | 0 mm | - | - | - |
| 1777426536 | 11.67° C | 86% | - | 0 mm | - | - | - |
| 1777419917 | 12.78° C | 79% | - | 0 mm | - | - | - |
| 1777419317 | 12.78° C | 78% | - | 0 mm | - | - | - |
| 1777415717 | 13.89° C | 68% | - | 0 mm | - | - | - |
| 1777414515 | 13.89° C | 70% | - | 0 mm | - | - | - |
| 1777413316 | 13.89° C | 70% | - | 0 mm | - | - | - |
| 1777412716 | 13.89° C | 70% | - | 0 mm | - | - | - |
| 1777411517 | 13.89° C | 71% | - | 0 mm | - | - | - |
| 1777401335 | 15.56° C | 72% | - | 0 mm | - | - | - |
| 1777399518 | 15.56° C | 70% | - | 0 mm | - | - | - |
| 1777398358 | 16.11° C | 69% | - | 0 mm | - | - | - |
| 1777392317 | 17.78° C | 65% | - | 0 mm | - | - | - |
| 1777388116 | 17.78° C | 63% | - | 0 mm | - | - | - |
| 1777386317 | 17.78° C | 62% | - | 0 mm | - | - | - |
| 1777385155 | 17.78° C | 63% | - | 0 mm | - | - | - |
| 1777382737 | 18.33° C | 62% | - | 0 mm | - | - | - |
| 1777377917 | 18.33° C | 55% | - | 0 mm | - | - | - |
| 1777377315 | 18.89° C | 56% | - | 0 mm | - | - | - |
| 1777373117 | 17.22° C | 60% | - | 0 mm | - | - | - |
| 1777371915 | 17.78° C | 60% | - | 0 mm | - | - | - |
| 1777369537 | 17.22° C | 62% | - | 0 mm | - | - | - |
| 1777367715 | 15.56° C | 63% | - | 0 mm | - | - | - |
| 1777366516 | 15° C | 63% | - | 0 mm | - | - | - |
| 1777362316 | 13.89° C | 72% | - | 0 mm | - | - | - |
* Rain latest hour (hover to see other rain measurements)
** Current wind speed in m/s (hover to see current wind gust speed)